Terminal Aerodrome Forecast
Issued by NWS Duluth, MN

Home | Current Version | Previous Version | Text Only | Print | Product List | Glossary On
Versions: 1 2 3 4 5 6 7 8 9 10 11 12 13 14 15 16 17 18 19 20 21 22 23 24 25 26 27
296
FTUS43 KDLH 201137
TAFDLH
TAF
KDLH 201137Z 2012/2112 09014KT P6SM BKN110
     FM201500 09016G22KT P6SM OVC100
     FM202000 08017G25KT 6SM -SHRA SCT015 OVC060
     FM202300 08019G26KT 3SM RA BR SCT007 OVC015
     FM210100 08017G25KT 2SM RA BR SCT003 OVC007
     FM210400 07015G20KT 2SM -RA BR OVC004=

USA.gov is the U.S. government's official web portal to all federal, state and local government web resources and services.